Time;durP1;ratioP1;P1;durP2;ratioP2;P2;SDS_P1;SDS_P2;PMS_P1;PMS_P2;Temp;Humidity;BMP_temperature;BMP_pressure;BME280_temperature;BME280_humidity;BME280_pressure;Samples;Min_cycle;Max_cycle;Signal;HPM_P1;HPM_P2
2023/04/10 00:01:08;;;;;;;4.03;3.63;;;;;;;;;;5098409;28;20522;-80
2023/04/10 00:03:35;;;;;;;5.00;4.33;;;;;;;;;;5101692;28;20670;-81
2023/04/10 00:06:02;;;;;;;4.70;4.30;;;;;;;;;;5100387;28;20670;-80
2023/04/10 00:08:29;;;;;;;5.83;4.83;;;;;;;;;;5113858;28;20211;-80
2023/04/10 00:10:55;;;;;;;5.93;4.63;;;;;;;;;;5101176;28;20273;-80
2023/04/10 00:13:23;;;;;;;5.10;4.33;;;;;;;;;;5113887;28;20200;-80
2023/04/10 00:15:51;;;;;;;4.83;4.33;;;;;;;;;;5099826;28;20212;-82
2023/04/10 00:18:17;;;;;;;5.17;4.67;;;;;;;;;;5114011;28;20200;-80
2023/04/10 00:20:44;;;;;;;4.73;4.33;;;;;;;;;;5110063;28;20224;-81
2023/04/10 00:23:11;;;;;;;4.97;4.47;;;;;;;;;;5103434;28;20199;-80
2023/04/10 00:25:38;;;;;;;5.63;4.60;;;;;;;;;;5112885;28;20682;-81
2023/04/10 00:28:05;;;;;;;4.93;4.27;;;;;;;;;;5113440;28;20199;-80
2023/04/10 00:30:32;;;;;;;4.43;4.03;;;;;;;;;;5113745;28;20211;-80
2023/04/10 00:33:03;;;;;;;4.10;3.70;;;;;;;;;;5113719;28;20268;-81
2023/04/10 00:35:30;;;;;;;4.47;4.07;;;;;;;;;;5099594;28;20208;-80
2023/04/10 00:37:57;;;;;;;5.07;4.63;;;;;;;;;;5102726;28;20204;-81
2023/04/10 00:40:24;;;;;;;4.10;3.70;;;;;;;;;;5110670;28;20640;-80
2023/04/10 00:42:51;;;;;;;7.30;5.03;;;;;;;;;;5101978;28;20204;-81
2023/04/10 00:45:18;;;;;;;4.13;3.73;;;;;;;;;;5107002;28;20574;-80
2023/04/10 00:47:45;;;;;;;5.13;4.63;;;;;;;;;;5104189;28;20207;-80
2023/04/10 00:50:13;;;;;;;4.47;4.07;;;;;;;;;;5113082;28;20662;-81
2023/04/10 00:52:40;;;;;;;4.90;4.00;;;;;;;;;;5101144;28;20274;-80
2023/04/10 00:55:08;;;;;;;4.07;3.73;;;;;;;;;;5097486;28;20678;-80
2023/04/10 00:57:35;;;;;;;7.33;4.47;;;;;;;;;;5112865;28;20214;-80
2023/04/10 01:00:02;;;;;;;4.70;4.30;;;;;;;;;;5112964;28;20758;-81
2023/04/10 01:02:28;;;;;;;5.00;4.50;;;;;;;;;;5112794;28;20237;-81
2023/04/10 01:04:55;;;;;;;4.60;3.93;;;;;;;;;;5099180;28;20207;-80
2023/04/10 01:07:30;;;;;;;6.00;4.70;;;;;;;;;;5112902;28;20631;-81
2023/04/10 01:10:00;;;;;;;4.87;4.37;;;;;;;;;;5099098;28;20226;-80
2023/04/10 01:12:38;;;;;;;4.63;4.23;;;;;;;;;;5110309;28;20204;-80
2023/04/10 01:15:10;;;;;;;5.17;4.67;;;;;;;;;;5092149;28;20243;-80
2023/04/10 01:17:41;;;;;;;6.83;3.97;;;;;;;;;;5110667;28;20282;-81
2023/04/10 01:20:12;;;;;;;5.50;4.37;;;;;;;;;;5100885;28;20599;-81
2023/04/10 01:22:49;;;;;;;4.57;4.10;;;;;;;;;;5092090;28;20216;-80
2023/04/10 01:25:32;;;;;;;5.87;4.43;;;;;;;;;;5092695;28;20227;-81
2023/04/10 01:28:07;;;;;;;4.67;4.20;;;;;;;;;;5101896;28;20211;-81
2023/04/10 01:30:37;;;;;;;4.67;4.23;;;;;;;;;;5098649;28;20203;-81
2023/04/10 01:33:06;;;;;;;4.70;4.20;;;;;;;;;;5112138;28;20208;-81
2023/04/10 01:35:33;;;;;;;4.20;3.73;;;;;;;;;;5107671;28;20283;-81
2023/04/10 01:38:01;;;;;;;3.93;3.60;;;;;;;;;;5091982;28;20208;-81
2023/04/10 01:40:29;;;;;;;4.60;4.17;;;;;;;;;;5110845;28;20252;-81
2023/04/10 01:42:57;;;;;;;3.60;3.30;;;;;;;;;;5111790;28;20720;-81
2023/04/10 01:45:26;;;;;;;4.73;4.30;;;;;;;;;;5093302;28;20208;-81
2023/04/10 01:47:55;;;;;;;5.73;4.70;;;;;;;;;;5104244;28;20743;-81
2023/04/10 01:50:23;;;;;;;4.57;4.13;;;;;;;;;;5098276;28;20701;-80
2023/04/10 01:52:51;;;;;;;5.27;4.77;;;;;;;;;;5112052;28;20222;-81
2023/04/10 01:55:19;;;;;;;7.37;5.70;;;;;;;;;;5112125;28;20231;-80
2023/04/10 01:57:47;;;;;;;6.50;5.87;;;;;;;;;;5112287;28;20204;-81
2023/04/10 02:00:14;;;;;;;6.53;5.93;;;;;;;;;;5098994;28;20644;-80
2023/04/10 02:02:41;;;;;;;11.03;6.93;;;;;;;;;;5111330;28;20238;-81
2023/04/10 02:05:10;;;;;;;6.53;5.77;;;;;;;;;;5111573;28;20290;-80
2023/04/10 02:07:41;;;;;;;4.63;4.17;;;;;;;;;;5111134;28;20291;-80
2023/04/10 02:10:11;;;;;;;4.60;4.03;;;;;;;;;;5091948;28;20227;-80
2023/04/10 02:12:40;;;;;;;4.10;3.70;;;;;;;;;;5108385;28;20670;-81
2023/04/10 02:15:09;;;;;;;7.67;5.53;;;;;;;;;;5111490;28;20226;-81
2023/04/10 02:17:37;;;;;;;15.27;8.73;;;;;;;;;;5094427;28;20594;-80
2023/04/10 02:20:05;;;;;;;12.43;7.47;;;;;;;;;;5102270;28;20204;-81
2023/04/10 02:22:34;;;;;;;8.97;5.43;;;;;;;;;;5097951;28;20322;-81
2023/04/10 02:25:00;;;;;;;5.17;4.67;;;;;;;;;;5118334;28;20211;-81
2023/04/10 02:27:29;;;;;;;6.40;5.77;;;;;;;;;;5118877;28;20207;-81
2023/04/10 02:29:55;;;;;;;9.00;6.33;;;;;;;;;;5118171;28;20199;-81
2023/04/10 02:32:22;;;;;;;9.40;7.17;;;;;;;;;;5113069;28;20269;-82
2023/04/10 02:34:49;;;;;;;7.20;6.03;;;;;;;;;;5110476;28;20203;-81
2023/04/10 02:37:16;;;;;;;9.47;6.73;;;;;;;;;;5099600;28;20207;-81
2023/04/10 02:39:44;;;;;;;6.73;5.53;;;;;;;;;;5097785;28;20200;-81
2023/04/10 02:42:11;;;;;;;5.60;4.20;;;;;;;;;;5110939;28;20228;-81
2023/04/10 02:44:39;;;;;;;5.13;4.20;;;;;;;;;;5098848;28;20571;-81
2023/04/10 02:47:06;;;;;;;4.83;4.33;;;;;;;;;;5117803;28;20253;-81
2023/04/10 02:49:33;;;;;;;7.40;5.43;;;;;;;;;;5117873;28;20255;-81
2023/04/10 02:52:01;;;;;;;5.60;4.70;;;;;;;;;;5098207;28;20232;-82
2023/04/10 02:54:27;;;;;;;4.93;4.43;;;;;;;;;;5098300;28;20196;-81
2023/04/10 02:56:56;;;;;;;5.20;4.00;;;;;;;;;;5117852;28;20682;-81
2023/04/10 02:59:23;;;;;;;5.47;4.93;;;;;;;;;;5118446;28;20214;-81
2023/04/10 03:01:50;;;;;;;6.70;6.00;;;;;;;;;;5109602;28;20239;-80
2023/04/10 03:04:17;;;;;;;5.63;5.00;;;;;;;;;;5099589;28;20204;-81
2023/04/10 03:06:44;;;;;;;5.13;4.50;;;;;;;;;;5118320;28;20206;-81
2023/04/10 03:09:11;;;;;;;6.90;4.97;;;;;;;;;;5118175;28;20299;-81
2023/04/10 03:11:37;;;;;;;8.23;6.60;;;;;;;;;;5109605;28;20215;-81
2023/04/10 03:14:06;;;;;;;5.03;4.37;;;;;;;;;;5113335;28;20627;-81
2023/04/10 03:16:32;;;;;;;5.17;4.40;;;;;;;;;;5117866;28;20641;-81
2023/04/10 03:19:00;;;;;;;4.63;3.97;;;;;;;;;;5115684;28;20214;-81
2023/04/10 03:21:27;;;;;;;5.00;3.53;;;;;;;;;;5096161;28;20522;-80
2023/04/10 03:23:54;;;;;;;4.73;4.07;;;;;;;;;;5111038;28;20200;-80
2023/04/10 03:26:22;;;;;;;3.60;3.30;;;;;;;;;;5108902;28;20590;-80
2023/04/10 03:28:49;;;;;;;2.90;2.70;;;;;;;;;;5098754;28;20204;-80
2023/04/10 03:31:17;;;;;;;3.63;3.37;;;;;;;;;;5109494;28;20199;-80
2023/04/10 03:33:45;;;;;;;3.53;3.23;;;;;;;;;;5104325;28;20698;-80
2023/04/10 03:36:11;;;;;;;4.73;4.23;;;;;;;;;;5100730;28;20270;-80
2023/04/10 03:38:38;;;;;;;4.13;3.73;;;;;;;;;;5100939;28;20269;-80
2023/04/10 03:41:05;;;;;;;4.53;4.07;;;;;;;;;;5100845;28;20751;-80
2023/04/10 03:43:32;;;;;;;3.37;3.03;;;;;;;;;;5101189;28;20238;-80
2023/04/10 03:46:00;;;;;;;3.17;2.90;;;;;;;;;;5100760;28;20215;-80
2023/04/10 03:48:29;;;;;;;3.43;3.13;;;;;;;;;;5107238;28;20202;-80
2023/04/10 03:50:56;;;;;;;3.67;3.37;;;;;;;;;;5108308;28;20685;-80
2023/04/10 03:53:23;;;;;;;3.50;3.20;;;;;;;;;;5106622;28;20210;-82
2023/04/10 03:55:51;;;;;;;4.00;3.10;;;;;;;;;;5107046;28;20203;-79
2023/04/10 03:58:18;;;;;;;4.00;3.17;;;;;;;;;;5102077;28;20625;-79
2023/04/10 04:00:45;;;;;;;4.57;3.10;;;;;;;;;;5113896;28;20204;-80
2023/04/10 04:03:12;;;;;;;4.03;3.53;;;;;;;;;;5105126;28;20830;-80
2023/04/10 04:05:40;;;;;;;3.63;3.33;;;;;;;;;;5094840;28;20208;-79
2023/04/10 04:08:07;;;;;;;3.63;3.33;;;;;;;;;;5104977;28;20206;-80
2023/04/10 04:10:34;;;;;;;3.20;2.90;;;;;;;;;;5097868;28;20224;-80
2023/04/10 04:13:01;;;;;;;5.23;3.40;;;;;;;;;;5113746;28;20693;-81
2023/04/10 04:15:28;;;;;;;3.23;3.00;;;;;;;;;;5113520;28;20678;-79
2023/04/10 04:17:55;;;;;;;3.83;3.30;;;;;;;;;;5113596;28;20256;-79
2023/04/10 04:20:22;;;;;;;3.80;3.50;;;;;;;;;;5113121;28;20655;-79
2023/04/10 04:22:50;;;;;;;4.37;3.70;;;;;;;;;;5100555;28;20223;-79
2023/04/10 04:25:18;;;;;;;4.97;4.47;;;;;;;;;;5099440;28;20204;-79
2023/04/10 04:27:45;;;;;;;3.37;3.10;;;;;;;;;;5113491;28;20696;-78
2023/04/10 04:30:12;;;;;;;4.37;3.90;;;;;;;;;;5099449;28;20200;-78
2023/04/10 04:32:39;;;;;;;3.87;3.37;;;;;;;;;;5104644;28;20295;-79
2023/04/10 04:35:07;;;;;;;3.30;2.97;;;;;;;;;;5108640;28;20200;-79
2023/04/10 04:37:34;;;;;;;3.43;3.13;;;;;;;;;;5104121;28;20204;-81
2023/04/10 04:40:02;;;;;;;4.10;2.70;;;;;;;;;;5108385;28;20601;-80
2023/04/10 04:42:29;;;;;;;3.90;3.60;;;;;;;;;;5103550;28;20281;-80
2023/04/10 04:44:56;;;;;;;3.53;3.20;;;;;;;;;;5108882;28;21615;-80
2023/04/10 04:47:23;;;;;;;6.20;3.40;;;;;;;;;;5112911;28;20600;-82
2023/04/10 04:49:50;;;;;;;3.80;3.07;;;;;;;;;;5109745;28;20279;-79
2023/04/10 04:52:17;;;;;;;5.80;5.20;;;;;;;;;;5102977;28;20210;-80
2023/04/10 04:54:46;;;;;;;5.03;3.47;;;;;;;;;;5112958;28;20316;-79
2023/04/10 04:57:14;;;;;;;3.60;3.30;;;;;;;;;;5112605;28;20636;-79
2023/04/10 04:59:41;;;;;;;3.20;2.90;;;;;;;;;;5108635;28;20571;-80
2023/04/10 05:02:10;;;;;;;3.33;3.03;;;;;;;;;;5103510;28;20731;-79
2023/04/10 05:04:37;;;;;;;3.00;2.80;;;;;;;;;;5107833;28;20743;-80
2023/04/10 05:07:04;;;;;;;3.77;2.97;;;;;;;;;;5092337;28;20212;-79
2023/04/10 05:09:30;;;;;;;3.30;3.00;;;;;;;;;;5092197;28;20228;-80
2023/04/10 05:11:57;;;;;;;2.83;2.63;;;;;;;;;;5103442;28;20696;-80
2023/04/10 05:14:27;;;;;;;3.20;2.87;;;;;;;;;;5108016;28;20204;-79
2023/04/10 05:16:54;;;;;;;3.00;2.70;;;;;;;;;;5103983;28;20265;-81
2023/04/10 05:19:21;;;;;;;2.67;2.47;;;;;;;;;;5106935;28;20200;-80
2023/04/10 05:21:48;;;;;;;7.53;3.10;;;;;;;;;;5104366;28;20264;-80
2023/04/10 05:24:14;;;;;;;3.40;3.10;;;;;;;;;;5093609;28;20212;-79
2023/04/10 05:26:41;;;;;;;3.23;3.00;;;;;;;;;;5104414;28;20207;-80
2023/04/10 05:29:08;;;;;;;3.50;3.20;;;;;;;;;;5098447;28;20200;-79
2023/04/10 05:31:36;;;;;;;3.33;3.03;;;;;;;;;;5111959;28;20206;-79
2023/04/10 05:34:03;;;;;;;3.83;3.43;;;;;;;;;;5092152;28;20212;-79
2023/04/10 05:36:30;;;;;;;3.63;2.83;;;;;;;;;;5105002;28;20199;-79
2023/04/10 05:38:57;;;;;;;3.00;2.70;;;;;;;;;;5091803;28;20257;-79
2023/04/10 05:41:24;;;;;;;2.80;2.47;;;;;;;;;;5091593;28;20200;-86
2023/04/10 05:43:50;;;;;;;2.87;2.63;;;;;;;;;;5098187;28;20231;-79
2023/04/10 05:46:17;;;;;;;2.77;2.57;;;;;;;;;;5098855;28;20204;-79
2023/04/10 05:48:48;;;;;;;2.83;2.63;;;;;;;;;;5111743;28;20701;-79
2023/04/10 05:51:15;;;;;;;3.33;3.03;;;;;;;;;;5098424;28;20641;-79
2023/04/10 05:53:42;;;;;;;3.27;2.97;;;;;;;;;;5112073;28;20203;-79
2023/04/10 05:56:09;;;;;;;3.50;3.20;;;;;;;;;;5111104;28;20199;-79
2023/04/10 05:58:35;;;;;;;4.17;3.13;;;;;;;;;;5090894;28;20701;-79
2023/04/10 06:01:02;;;;;;;2.97;2.77;;;;;;;;;;5091737;28;20709;-79
2023/04/10 06:03:30;;;;;;;3.33;3.03;;;;;;;;;;5099527;28;20249;-80
2023/04/10 06:05:58;;;;;;;4.10;3.67;;;;;;;;;;5111753;28;20211;-80
2023/04/10 06:08:25;;;;;;;5.30;4.37;;;;;;;;;;5111370;28;20591;-83
2023/04/10 06:10:52;;;;;;;3.30;3.00;;;;;;;;;;5111765;28;20594;-79
2023/04/10 06:13:19;;;;;;;3.27;2.97;;;;;;;;;;5102370;28;20674;-79
2023/04/10 06:15:46;;;;;;;4.80;3.13;;;;;;;;;;5093872;28;20635;-79
2023/04/10 06:18:12;;;;;;;3.43;3.13;;;;;;;;;;5111502;28;20203;-79
2023/04/10 06:20:39;;;;;;;3.50;3.20;;;;;;;;;;5109361;28;20203;-79
2023/04/10 06:23:09;;;;;;;7.53;5.00;;;;;;;;;;5100169;28;20250;-80
2023/04/10 06:25:36;;;;;;;5.37;4.60;;;;;;;;;;5097531;28;20195;-80
2023/04/10 06:28:02;;;;;;;4.50;3.80;;;;;;;;;;5111742;28;20199;-80
2023/04/10 06:30:29;;;;;;;6.00;5.37;;;;;;;;;;5097521;28;20252;-80
2023/04/10 06:32:56;;;;;;;4.70;4.30;;;;;;;;;;5111502;28;20211;-80
2023/04/10 06:35:23;;;;;;;5.93;4.37;;;;;;;;;;5111387;28;20207;-80
2023/04/10 06:37:50;;;;;;;4.30;3.63;;;;;;;;;;5101171;28;20670;-80
2023/04/10 06:40:18;;;;;;;3.07;2.77;;;;;;;;;;5094895;28;20203;-80
2023/04/10 06:42:46;;;;;;;10.03;3.00;;;;;;;;;;5100085;28;20657;-80
2023/04/10 06:45:12;;;;;;;6.40;4.90;;;;;;;;;;5109108;28;20204;-80
2023/04/10 06:47:39;;;;;;;8.50;4.87;;;;;;;;;;5111630;28;20230;-80
2023/04/10 06:50:06;;;;;;;6.57;5.13;;;;;;;;;;5111159;28;20215;-81
2023/04/10 06:52:34;;;;;;;3.33;3.03;;;;;;;;;;5099440;28;20197;-81
2023/04/10 06:55:01;;;;;;;4.90;4.00;;;;;;;;;;5110328;28;20195;-81
2023/04/10 06:57:29;;;;;;;5.90;3.60;;;;;;;;;;5098863;28;20205;-82
2023/04/10 06:59:55;;;;;;;4.33;3.40;;;;;;;;;;5110396;28;20324;-80
2023/04/10 07:02:22;;;;;;;7.80;5.20;;;;;;;;;;5098117;28;20566;-80
2023/04/10 07:04:49;;;;;;;3.70;3.40;;;;;;;;;;5104469;28;20598;-80
2023/04/10 07:07:18;;;;;;;2.87;2.67;;;;;;;;;;5091267;28;20239;-80
2023/04/10 07:09:44;;;;;;;3.53;3.23;;;;;;;;;;5097736;28;20231;-80
2023/04/10 07:12:11;;;;;;;3.73;3.33;;;;;;;;;;5115080;28;20264;-81
2023/04/10 07:14:40;;;;;;;3.73;3.20;;;;;;;;;;5101884;28;20253;-80
2023/04/10 07:17:06;;;;;;;4.43;3.47;;;;;;;;;;5114548;28;20207;-81
2023/04/10 07:19:33;;;;;;;2.83;2.63;;;;;;;;;;5094816;28;20291;-80
2023/04/10 07:22:00;;;;;;;8.33;5.43;;;;;;;;;;5108857;28;20286;-81
2023/04/10 07:24:27;;;;;;;5.43;4.90;;;;;;;;;;5114607;28;20227;-87
2023/04/10 07:26:56;;;;;;;3.93;3.10;;;;;;;;;;5100899;28;20261;-81
2023/04/10 07:29:22;;;;;;;3.97;3.13;;;;;;;;;;5102315;28;20235;-81
2023/04/10 07:31:51;;;;;;;2.90;2.60;;;;;;;;;;5101067;28;20231;-81
2023/04/10 07:34:17;;;;;;;5.73;3.87;;;;;;;;;;5114479;28;20211;-81
2023/04/10 07:36:46;;;;;;;7.37;4.43;;;;;;;;;;5112866;28;20207;-81
2023/04/10 07:39:12;;;;;;;4.10;3.70;;;;;;;;;;5094575;28;20228;-81
2023/04/10 07:41:39;;;;;;;3.17;2.97;;;;;;;;;;5107805;28;20207;-81
2023/04/10 07:44:06;;;;;;;3.13;2.93;;;;;;;;;;5103034;28;20616;-81
2023/04/10 07:46:32;;;;;;;5.63;3.50;;;;;;;;;;5111753;28;20203;-81
2023/04/10 07:49:03;;;;;;;3.27;2.97;;;;;;;;;;5103668;28;20211;-81
2023/04/10 07:51:30;;;;;;;3.20;2.90;;;;;;;;;;5110638;28;20196;-81
2023/04/10 07:53:57;;;;;;;3.67;2.93;;;;;;;;;;5094047;28;20743;-80
2023/04/10 07:56:24;;;;;;;4.43;4.03;;;;;;;;;;5097478;28;20273;-81
2023/04/10 07:58:52;;;;;;;4.77;3.57;;;;;;;;;;5114627;28;20207;-81
2023/04/10 08:01:18;;;;;;;3.60;3.17;;;;;;;;;;5100273;28;20199;-81
2023/04/10 08:03:46;;;;;;;10.70;4.70;;;;;;;;;;5113931;28;20242;-80
2023/04/10 08:06:14;;;;;;;4.00;3.53;;;;;;;;;;5109434;28;20287;-81
2023/04/10 08:08:42;;;;;;;5.03;4.63;;;;;;;;;;5093756;28;20305;-81
2023/04/10 08:11:23;;;;;;;3.80;3.50;;;;;;;;;;5093553;28;20682;-81
2023/04/10 08:13:51;;;;;;;3.63;3.33;;;;;;;;;;5093928;28;20214;-81
2023/04/10 08:16:19;;;;;;;3.43;3.13;;;;;;;;;;5113955;28;20210;-81
2023/04/10 08:18:46;;;;;;;3.40;3.07;;;;;;;;;;5113939;28;20256;-81
2023/04/10 08:21:14;;;;;;;3.77;3.47;;;;;;;;;;5105820;28;20204;-81
2023/04/10 08:23:41;;;;;;;4.83;3.17;;;;;;;;;;5106835;28;20227;-81
2023/04/10 08:26:07;;;;;;;3.47;3.10;;;;;;;;;;5101110;28;20211;-81
2023/04/10 08:28:35;;;;;;;3.60;3.20;;;;;;;;;;5098858;28;20208;-81
2023/04/10 08:31:02;;;;;;;3.70;3.40;;;;;;;;;;5101494;28;20670;-81
2023/04/10 08:33:29;;;;;;;4.80;3.13;;;;;;;;;;5113732;28;20316;-80
2023/04/10 08:35:55;;;;;;;4.27;3.87;;;;;;;;;;5113360;28;20207;-81
2023/04/10 08:38:26;;;;;;;4.80;4.00;;;;;;;;;;5113129;28;20206;-80
2023/04/10 08:40:53;;;;;;;3.77;3.37;;;;;;;;;;5113452;28;20203;-81
2023/04/10 08:43:20;;;;;;;4.33;3.67;;;;;;;;;;5110933;28;20241;-80
2023/04/10 08:45:46;;;;;;;4.33;3.50;;;;;;;;;;5102489;28;20256;-81
2023/04/10 08:48:14;;;;;;;7.63;3.90;;;;;;;;;;5097146;28;20261;-81
2023/04/10 08:50:42;;;;;;;6.17;4.47;;;;;;;;;;5102311;28;20674;-81
2023/04/10 08:53:12;;;;;;;2.93;2.73;;;;;;;;;;5110129;28;20295;-81
2023/04/10 08:55:40;;;;;;;3.47;3.17;;;;;;;;;;5103769;28;20199;-81
2023/04/10 08:58:07;;;;;;;3.87;3.57;;;;;;;;;;5099588;28;20200;-81
2023/04/10 09:00:37;;;;;;;5.77;4.47;;;;;;;;;;5101519;28;20236;-81
2023/04/10 09:03:07;;;;;;;3.60;3.30;;;;;;;;;;5097265;28;20681;-81
2023/04/10 09:05:37;;;;;;;3.93;3.30;;;;;;;;;;5112953;28;20264;-81
2023/04/10 09:08:04;;;;;;;4.27;3.80;;;;;;;;;;5093224;28;20208;-82
2023/04/10 09:10:30;;;;;;;7.90;3.37;;;;;;;;;;5092585;28;20714;-82
2023/04/10 09:12:59;;;;;;;3.43;3.13;;;;;;;;;;5106249;28;20200;-82
2023/04/10 09:15:26;;;;;;;4.53;3.83;;;;;;;;;;5092673;28;20276;-81
2023/04/10 09:17:57;;;;;;;6.23;2.90;;;;;;;;;;5111937;28;20682;-81
2023/04/10 09:20:26;;;;;;;12.33;7.33;;;;;;;;;;5112143;28;20199;-81
2023/04/10 09:22:53;;;;;;;8.03;6.20;;;;;;;;;;5099579;28;20301;-81
2023/04/10 09:25:33;;;;;;;5.40;4.50;;;;;;;;;;5112046;28;20618;-81
2023/04/10 09:28:02;;;;;;;6.30;3.67;;;;;;;;;;5112086;28;20203;-80
2023/04/10 09:30:39;;;;;;;20.77;13.03;;;;;;;;;;5095894;28;20200;-81
2023/04/10 09:33:30;;;;;;;10.83;7.33;;;;;;;;;;5090947;28;20205;-81
2023/04/10 09:35:59;;;;;;;25.73;14.20;;;;;;;;;;5084507;28;20200;-81
2023/04/10 09:38:26;;;;;;;13.83;9.97;;;;;;;;;;5111567;28;20595;-81
2023/04/10 09:40:52;;;;;;;30.97;15.67;;;;;;;;;;5112176;28;20268;-81
2023/04/10 09:43:22;;;;;;;38.47;19.23;;;;;;;;;;5097216;28;20208;-78
2023/04/10 09:45:50;;;;;;;48.93;23.77;;;;;;;;;;5099929;28;20290;-79
2023/04/10 09:48:17;;;;;;;30.37;17.83;;;;;;;;;;5098573;28;20200;-79
2023/04/10 09:50:44;;;;;;;37.50;22.43;;;;;;;;;;5112079;28;20218;-79
2023/04/10 09:53:13;;;;;;;69.93;32.23;;;;;;;;;;5112168;28;20207;-79
2023/04/10 09:55:40;;;;;;;215.03;87.40;;;;;;;;;;5111831;28;20215;-79
2023/04/10 09:58:07;;;;;;;289.80;120.20;;;;;;;;;;5094995;28;20691;-79
2023/04/10 10:00:40;;;;;;;65.53;30.77;;;;;;;;;;5091875;28;20204;-79
2023/04/10 10:03:08;;;;;;;11.70;9.30;;;;;;;;;;5104935;28;20212;-79
2023/04/10 10:05:36;;;;;;;17.27;13.73;;;;;;;;;;5091564;28;20651;-79
2023/04/10 10:08:03;;;;;;;10.03;7.73;;;;;;;;;;5109597;28;20688;-79
2023/04/10 10:10:30;;;;;;;7.73;6.93;;;;;;;;;;5111737;28;20706;-79
2023/04/10 10:13:00;;;;;;;6.87;5.13;;;;;;;;;;5106134;28;20282;-79
2023/04/10 10:15:31;;;;;;;4.40;4.00;;;;;;;;;;5104370;28;20203;-79
2023/04/10 10:18:04;;;;;;;6.10;5.47;;;;;;;;;;5098491;28;20662;-79
2023/04/10 10:20:32;;;;;;;11.07;8.47;;;;;;;;;;5111498;28;20203;-80
2023/04/10 10:22:59;;;;;;;6.07;4.83;;;;;;;;;;5103479;28;20196;-79
2023/04/10 10:25:26;;;;;;;7.50;6.37;;;;;;;;;;5105739;28;20223;-80
2023/04/10 10:27:54;;;;;;;4.23;3.90;;;;;;;;;;5102794;28;20679;-79
2023/04/10 10:30:21;;;;;;;4.60;4.20;;;;;;;;;;5104586;28;20654;-79
2023/04/10 10:32:49;;;;;;;5.10;4.33;;;;;;;;;;5100258;28;20221;-80
2023/04/10 10:35:18;;;;;;;5.37;4.07;;;;;;;;;;5111045;28;20226;-80
2023/04/10 10:37:46;;;;;;;5.17;4.67;;;;;;;;;;5111288;28;20203;-79
2023/04/10 10:40:17;;;;;;;5.20;4.20;;;;;;;;;;5111545;28;20204;-80
2023/04/10 10:42:48;;;;;;;6.37;5.50;;;;;;;;;;5100822;28;20265;-80
2023/04/10 10:45:17;;;;;;;5.53;5.03;;;;;;;;;;5107586;28;20573;-80
2023/04/10 10:47:46;;;;;;;6.33;5.50;;;;;;;;;;5106798;28;20248;-80
2023/04/10 10:50:12;;;;;;;7.87;6.23;;;;;;;;;;5109810;28;20200;-79
2023/04/10 10:52:45;;;;;;;5.67;5.13;;;;;;;;;;5094711;28;20579;-80
2023/04/10 10:55:36;;;;;;;5.27;4.60;;;;;;;;;;5094878;28;20211;-80
2023/04/10 10:58:05;;;;;;;5.83;4.57;;;;;;;;;;5112244;28;20299;-83
2023/04/10 11:01:06;;;;;;;8.23;7.13;;;;;;;;;;5115808;28;20199;-80
2023/04/10 11:03:33;;;;;;;23.90;15.17;;;;;;;;;;5106138;28;20270;-80
2023/04/10 11:06:01;;;;;;;12.40;9.60;;;;;;;;;;5110692;28;20218;-80
2023/04/10 11:08:42;;;;;;;25.70;16.90;;;;;;;;;;5115218;28;20210;-79
2023/04/10 11:11:11;;;;;;;31.03;18.23;;;;;;;;;;5097064;28;20227;-79
2023/04/10 11:13:40;;;;;;;11.53;8.13;;;;;;;;;;5106934;28;20214;-79
2023/04/10 11:16:09;;;;;;;6.67;6.07;;;;;;;;;;5109801;28;20261;-80
2023/04/10 11:19:05;;;;;;;6.90;5.23;;;;;;;;;;5094811;28;20212;-79
2023/04/10 11:21:33;;;;;;;7.20;6.23;;;;;;;;;;5105132;28;20206;-80
2023/04/10 11:24:05;;;;;;;5.67;4.67;;;;;;;;;;5097394;28;20624;-79
2023/04/10 11:26:41;;;;;;;5.27;4.77;;;;;;;;;;5106087;28;20283;-80
2023/04/10 11:29:37;;;;;;;6.40;5.20;;;;;;;;;;5114500;28;20216;-80
2023/04/10 11:32:04;;;;;;;5.17;4.67;;;;;;;;;;5103325;28;20200;-86
2023/04/10 11:34:32;;;;;;;5.13;4.73;;;;;;;;;;5094576;28;20265;-80
2023/04/10 11:37:00;;;;;;;5.87;5.17;;;;;;;;;;5098648;28;20283;-80
2023/04/10 11:39:28;;;;;;;9.37;7.40;;;;;;;;;;5114309;28;20207;-79
2023/04/10 11:41:56;;;;;;;20.40;11.87;;;;;;;;;;5096277;28;20207;-79
2023/04/10 11:44:34;;;;;;;8.47;6.50;;;;;;;;;;5105522;28;20223;-80
2023/04/10 11:47:01;;;;;;;22.77;14.63;;;;;;;;;;5094578;28;20210;-80
2023/04/10 11:49:30;;;;;;;20.83;13.30;;;;;;;;;;5107124;28;20218;-80
2023/04/10 11:51:56;;;;;;;9.77;7.87;;;;;;;;;;5101127;28;20234;-80
2023/04/10 11:54:24;;;;;;;9.00;7.57;;;;;;;;;;5113690;28;20639;-81
2023/04/10 11:57:03;;;;;;;22.97;13.40;;;;;;;;;;5105610;28;20253;-81
2023/04/10 11:59:30;;;;;;;14.40;10.70;;;;;;;;;;5107557;28;20256;-81
2023/04/10 12:02:05;;;;;;;18.13;12.43;;;;;;;;;;5103677;28;20595;-81
2023/04/10 12:04:32;;;;;;;7.57;6.17;;;;;;;;;;5096407;28;20636;-81
2023/04/10 12:06:59;;;;;;;16.80;10.47;;;;;;;;;;5093945;28;20242;-81
2023/04/10 12:09:26;;;;;;;21.10;12.83;;;;;;;;;;5111648;28;20228;-81
2023/04/10 12:11:58;;;;;;;20.20;12.77;;;;;;;;;;5113974;28;20276;-80
2023/04/10 12:14:34;;;;;;;6.47;5.87;;;;;;;;;;5095798;28;20632;-81
2023/04/10 12:17:03;;;;;;;9.77;8.27;;;;;;;;;;5106848;28;20235;-81
2023/04/10 12:19:30;;;;;;;6.20;5.47;;;;;;;;;;5113745;28;20218;-81
2023/04/10 12:21:58;;;;;;;8.27;4.80;;;;;;;;;;5113489;28;20810;-81
2023/04/10 12:24:41;;;;;;;11.43;7.17;;;;;;;;;;5100321;28;20742;-81
2023/04/10 12:27:08;;;;;;;11.90;9.07;;;;;;;;;;5111055;28;20581;-83
2023/04/10 12:29:40;;;;;;;14.40;9.33;;;;;;;;;;5093184;28;20208;-81
2023/04/10 12:32:10;;;;;;;15.70;9.30;;;;;;;;;;5106934;28;20198;-80
2023/04/10 12:34:36;;;;;;;102.33;34.93;;;;;;;;;;5093120;28;20200;-81
2023/04/10 12:37:03;;;;;;;48.87;21.97;;;;;;;;;;5106528;28;20212;-81
2023/04/10 12:39:30;;;;;;;31.80;14.20;;;;;;;;;;5093368;28;20200;-81
2023/04/10 12:42:11;;;;;;;30.07;14.53;;;;;;;;;;5092902;28;20211;-81
2023/04/10 12:44:52;;;;;;;35.73;18.97;;;;;;;;;;5092688;28;20223;-81
2023/04/10 12:47:18;;;;;;;17.37;11.53;;;;;;;;;;5101959;28;20203;-81
2023/04/10 12:50:04;;;;;;;12.17;8.40;;;;;;;;;;5113014;28;20207;-81
2023/04/10 12:52:31;;;;;;;24.30;13.97;;;;;;;;;;5113061;28;20256;-81
2023/04/10 12:55:09;;;;;;;16.77;12.27;;;;;;;;;;5113095;28;20199;-81
2023/04/10 12:57:35;;;;;;;10.73;6.97;;;;;;;;;;5112824;28;20211;-81
2023/04/10 13:00:05;;;;;;;12.70;10.20;;;;;;;;;;5113510;28;20227;-80
2023/04/10 13:02:31;;;;;;;13.57;6.67;;;;;;;;;;5098972;28;20209;-81
2023/04/10 13:05:00;;;;;;;16.77;15.13;;;;;;;;;;5099828;28;20675;-81
2023/04/10 13:07:27;;;;;;;7.00;6.30;;;;;;;;;;5098245;28;20211;-81
2023/04/10 13:09:54;;;;;;;21.63;13.53;;;;;;;;;;5100015;28;20223;-81
2023/04/10 13:12:21;;;;;;;25.20;16.17;;;;;;;;;;5112721;28;20576;-81
2023/04/10 13:14:47;;;;;;;8.77;7.20;;;;;;;;;;5112793;28;20660;-81
2023/04/10 13:17:16;;;;;;;6.87;5.40;;;;;;;;;;5098823;28;20213;-81
2023/04/10 13:19:45;;;;;;;6.37;5.77;;;;;;;;;;5104699;28;20213;-81
2023/04/10 13:22:12;;;;;;;6.10;5.47;;;;;;;;;;5094217;28;20204;-82
2023/04/10 13:24:38;;;;;;;4.40;4.00;;;;;;;;;;5104186;28;20231;-81
2023/04/10 13:27:05;;;;;;;5.60;5.10;;;;;;;;;;5094415;28;20207;-81
2023/04/10 13:29:32;;;;;;;7.77;6.37;;;;;;;;;;5103393;28;20204;-80
2023/04/10 13:32:00;;;;;;;6.77;4.70;;;;;;;;;;5108332;28;20249;-81
2023/04/10 13:34:28;;;;;;;10.20;7.10;;;;;;;;;;5103226;28;20196;-81
2023/04/10 13:36:54;;;;;;;6.93;5.80;;;;;;;;;;5092085;28;20253;-81
2023/04/10 13:39:21;;;;;;;8.50;7.37;;;;;;;;;;5091777;28;20747;-81
2023/04/10 13:41:48;;;;;;;7.87;6.90;;;;;;;;;;5108459;28;20287;-81
2023/04/10 13:44:15;;;;;;;8.77;6.03;;;;;;;;;;5102060;28;20204;-81
2023/04/10 13:46:41;;;;;;;10.33;7.40;;;;;;;;;;5108509;28;20251;-81
2023/04/10 13:49:08;;;;;;;44.73;27.83;;;;;;;;;;5112556;28;20586;-80
2023/04/10 13:51:36;;;;;;;28.03;17.90;;;;;;;;;;5112025;28;20714;-80
2023/04/10 13:54:04;;;;;;;31.73;18.57;;;;;;;;;;5112179;28;20211;-81
2023/04/10 13:56:30;;;;;;;25.57;16.20;;;;;;;;;;5097694;28;20298;-81
2023/04/10 13:58:57;;;;;;;25.97;15.83;;;;;;;;;;5101091;28;20208;-81
2023/04/10 14:01:24;;;;;;;13.57;7.93;;;;;;;;;;5091983;28;20208;-81
2023/04/10 14:03:51;;;;;;;11.27;8.23;;;;;;;;;;5102207;28;20199;-81
2023/04/10 14:06:17;;;;;;;6.13;5.53;;;;;;;;;;5097281;28;20227;-80
2023/04/10 14:08:46;;;;;;;10.03;8.73;;;;;;;;;;5111992;28;20284;-82
2023/04/10 14:11:13;;;;;;;7.07;6.37;;;;;;;;;;5111727;28;20211;-80
2023/04/10 14:13:40;;;;;;;15.97;11.70;;;;;;;;;;5112125;28;20605;-80
2023/04/10 14:16:08;;;;;;;13.90;10.60;;;;;;;;;;5111018;28;20207;-81
2023/04/10 14:18:34;;;;;;;13.53;10.67;;;;;;;;;;5111181;28;20596;-80
2023/04/10 14:21:01;;;;;;;8.63;7.73;;;;;;;;;;5105442;28;20207;-80
2023/04/10 14:23:28;;;;;;;9.13;7.00;;;;;;;;;;5091587;28;20205;-80
2023/04/10 14:25:56;;;;;;;6.67;6.03;;;;;;;;;;5110421;28;20709;-81
2023/04/10 14:28:23;;;;;;;8.87;8.07;;;;;;;;;;5111278;28;20203;-81
2023/04/10 14:30:51;;;;;;;9.63;7.57;;;;;;;;;;5104832;28;20437;-81
2023/04/10 14:33:18;;;;;;;10.27;8.20;;;;;;;;;;5104825;28;20207;-81
2023/04/10 14:35:46;;;;;;;8.40;7.53;;;;;;;;;;5111401;28;20200;-81
2023/04/10 14:38:14;;;;;;;7.60;6.87;;;;;;;;;;5098180;28;20269;-81
2023/04/10 14:40:41;;;;;;;35.87;24.87;;;;;;;;;;5103862;28;20298;-80
2023/04/10 14:43:09;;;;;;;20.60;16.80;;;;;;;;;;5092491;28;20200;-81
2023/04/10 14:45:36;;;;;;;21.93;17.47;;;;;;;;;;5111604;28;20224;-81